createdAt,value
2022-12-11T00:00:57.028Z,72.35
2022-12-11T00:03:30.622Z,72.18
2022-12-11T00:06:08.955Z,72.31
2022-12-11T00:08:43.017Z,72.36
2022-12-11T00:11:16.976Z,72.09
2022-12-11T00:13:50.471Z,72.21
2022-12-11T00:16:27.175Z,72.26
2022-12-11T00:19:00.875Z,72.40
2022-12-11T00:21:36.047Z,72.55
2022-12-11T00:24:09.797Z,72.48
2022-12-11T00:26:43.314Z,72.62
2022-12-11T00:29:16.837Z,72.63
2022-12-11T00:31:50.499Z,72.56
2022-12-11T00:34:24.144Z,72.40
2022-12-11T00:37:00.329Z,72.49
2022-12-11T00:39:36.983Z,72.57
2022-12-11T00:42:15.215Z,72.56
2022-12-11T00:44:48.679Z,72.63
2022-12-11T00:47:22.132Z,72.74
2022-12-11T00:49:55.579Z,72.59
2022-12-11T00:52:30.572Z,72.75
2022-12-11T00:55:04.105Z,72.86
2022-12-11T00:57:37.564Z,72.81
2022-12-11T01:00:12.770Z,72.75
2022-12-11T01:02:46.464Z,72.56
2022-12-11T01:05:20.223Z,72.49
2022-12-11T01:07:57.467Z,72.57
2022-12-11T01:10:31.310Z,72.56
2022-12-11T01:13:07.972Z,72.64
2022-12-11T01:15:52.443Z,72.61
2022-12-11T01:18:34.144Z,72.59
2022-12-11T01:21:09.006Z,72.59
2022-12-11T01:23:44.232Z,72.59
2022-12-11T01:26:17.853Z,72.92
2022-12-11T01:28:55.179Z,72.73
2022-12-11T01:31:28.740Z,72.67
2022-12-11T01:34:02.314Z,72.65
2022-12-11T01:36:35.929Z,72.50
2022-12-11T01:39:10.993Z,72.61
2022-12-11T01:41:44.487Z,72.84
2022-12-11T01:44:54.855Z,72.73
2022-12-11T01:47:31.338Z,72.73
2022-12-11T01:50:05.163Z,72.91
2022-12-11T01:52:38.558Z,72.56
2022-12-11T01:55:13.731Z,72.52
2022-12-11T01:57:51.468Z,72.65
2022-12-11T02:00:25.872Z,72.70
2022-12-11T02:02:59.353Z,72.65
2022-12-11T02:05:32.825Z,72.57
2022-12-11T02:08:10.255Z,72.71
2022-12-11T02:11:07.400Z,72.60
2022-12-11T02:13:46.154Z,72.58
2022-12-11T02:16:27.732Z,72.42
2022-12-11T02:19:09.339Z,72.39
2022-12-11T02:21:47.299Z,72.26
2022-12-11T02:24:50.357Z,72.17
2022-12-11T02:27:35.070Z,72.46
2022-12-11T02:30:12.261Z,72.22
2022-12-11T02:32:51.910Z,72.32
2022-12-11T02:35:31.856Z,72.41
2022-12-11T02:38:09.851Z,72.55
2022-12-11T02:40:44.466Z,72.52
2022-12-11T02:43:20.066Z,72.58
2022-12-11T02:45:55.792Z,72.65
2022-12-11T02:48:29.317Z,72.54
2022-12-11T02:51:04.717Z,72.56
2022-12-11T02:53:42.690Z,72.36
2022-12-11T02:56:22.390Z,72.33
2022-12-11T02:59:01.077Z,72.33
2022-12-11T03:01:35.951Z,72.14
2022-12-11T03:04:09.512Z,71.98
2022-12-11T03:06:48.147Z,72.03
2022-12-11T03:09:22.271Z,72.12
2022-12-11T03:11:56.064Z,71.98
2022-12-11T03:14:29.674Z,72.03
2022-12-11T03:17:10.198Z,72.13
2022-12-11T03:19:51.118Z,72.17
2022-12-11T03:22:33.894Z,72.26
2022-12-11T03:25:12.257Z,72.20
2022-12-11T03:27:52.241Z,72.12
2022-12-11T03:30:29.352Z,72.34
2022-12-11T03:33:08.292Z,72.41
2022-12-11T03:35:45.296Z,72.26
2022-12-11T03:38:22.817Z,72.08
2022-12-11T03:41:00.466Z,72.01
2022-12-11T03:43:35.577Z,72.01
2022-12-11T03:46:10.600Z,72.11
2022-12-11T03:48:48.464Z,72.25
2022-12-11T03:51:24.308Z,72.15
2022-12-11T03:53:58.509Z,72.18
2022-12-11T03:56:35.650Z,72.18
2022-12-11T03:59:09.103Z,72.20
2022-12-11T04:01:48.533Z,72.17
2022-12-11T04:04:23.511Z,72.22
2022-12-11T04:06:57.078Z,72.23
2022-12-11T04:09:30.662Z,72.33
2022-12-11T04:12:04.222Z,72.26
2022-12-11T04:14:55.057Z,72.15
2022-12-11T04:17:53.115Z,72.19
2022-12-11T04:20:47.620Z,72.47
2022-12-11T04:23:38.786Z,72.22
2022-12-11T04:26:14.204Z,72.22
2022-12-11T04:28:49.340Z,72.51
2022-12-11T04:31:23.852Z,72.38
2022-12-11T04:33:57.397Z,72.10
2022-12-11T04:36:32.278Z,72.19
2022-12-11T04:39:06.824Z,72.28
2022-12-11T04:41:41.732Z,72.15
2022-12-11T04:44:15.271Z,72.21
2022-12-11T04:46:48.730Z,72.31
2022-12-11T04:49:22.253Z,72.43
2022-12-11T04:51:57.088Z,72.33
2022-12-11T04:54:30.994Z,72.46
2022-12-11T04:57:04.436Z,72.43
2022-12-11T04:59:38.589Z,72.50
2022-12-11T05:02:12.030Z,72.47
2022-12-11T05:04:45.679Z,72.51
2022-12-11T05:07:20.575Z,72.61
2022-12-11T05:09:54.090Z,72.59
2022-12-11T05:12:27.624Z,72.69
2022-12-11T05:15:01.117Z,72.59
2022-12-11T05:17:35.409Z,72.61
2022-12-11T05:20:09.904Z,72.67
2022-12-11T05:22:44.780Z,72.67
2022-12-11T05:25:18.384Z,72.68
2022-12-11T05:27:51.784Z,72.65
2022-12-11T05:30:25.273Z,72.66
2022-12-11T05:32:59.018Z,72.77
2022-12-11T05:35:32.429Z,72.92
2022-12-11T05:38:07.314Z,72.85
2022-12-11T05:40:40.928Z,72.74
2022-12-11T05:43:14.307Z,72.83
2022-12-11T05:45:47.739Z,72.65
2022-12-11T05:48:21.253Z,72.55
2022-12-11T05:50:59.209Z,72.59
2022-12-11T05:53:34.514Z,72.62
2022-12-11T05:56:09.876Z,72.54
2022-12-11T05:58:43.963Z,72.48
2022-12-11T06:01:18.254Z,72.28
2022-12-11T06:03:51.888Z,72.20
2022-12-11T06:06:26.149Z,72.17
2022-12-11T06:09:02.046Z,72.34
2022-12-11T06:11:36.086Z,72.34
2022-12-11T06:14:09.195Z,72.25
2022-12-11T06:16:42.709Z,72.18
2022-12-11T06:19:17.548Z,72.30
2022-12-11T06:21:50.990Z,72.29
2022-12-11T06:24:25.818Z,72.35
2022-12-11T06:26:59.402Z,72.42
2022-12-11T06:29:33.030Z,72.42
2022-12-11T06:32:07.107Z,72.38
2022-12-11T06:34:40.529Z,72.34
2022-12-11T06:37:13.964Z,72.35
2022-12-11T06:39:48.789Z,72.38
2022-12-11T06:42:22.231Z,72.36
2022-12-11T06:44:57.517Z,72.25
2022-12-11T06:47:32.300Z,72.21
2022-12-11T06:50:06.204Z,72.07
2022-12-11T06:52:39.706Z,72.13
2022-12-11T06:55:14.524Z,72.18
2022-12-11T06:57:48.006Z,72.05
2022-12-11T07:00:21.706Z,72.25
2022-12-11T07:02:55.279Z,72.10
2022-12-11T07:05:29.192Z,71.95
2022-12-11T07:08:02.827Z,71.85
2022-12-11T07:10:38.229Z,71.99
2022-12-11T07:13:11.682Z,71.79
2022-12-11T07:15:45.128Z,71.82
2022-12-11T07:18:18.630Z,71.85
2022-12-11T07:20:52.100Z,71.94
2022-12-11T07:23:25.581Z,71.75
2022-12-11T07:26:00.485Z,71.91
2022-12-11T07:28:34.099Z,71.58
2022-12-11T07:31:08.620Z,71.83
2022-12-11T07:33:43.095Z,71.67
2022-12-11T07:36:17.547Z,71.78
2022-12-11T07:38:51.060Z,71.64
2022-12-11T07:41:27.867Z,71.53
2022-12-11T07:44:01.945Z,71.41
2022-12-11T07:46:35.442Z,71.54
2022-12-11T07:49:09.113Z,71.48
2022-12-11T07:51:44.852Z,71.49
2022-12-11T07:54:18.436Z,71.37
2022-12-11T07:56:54.070Z,71.42
2022-12-11T07:59:27.746Z,71.50
2022-12-11T08:02:01.670Z,71.41
2022-12-11T08:04:35.254Z,71.35
2022-12-11T08:07:08.858Z,71.37
2022-12-11T08:09:42.523Z,71.23
2022-12-11T08:12:17.514Z,71.28
2022-12-11T08:14:51.087Z,71.25
2022-12-11T08:17:29.116Z,71.12
2022-12-11T08:20:04.749Z,71.05
2022-12-11T08:22:38.197Z,71.13
2022-12-11T08:25:12.159Z,71.00
2022-12-11T08:27:47.302Z,70.99
2022-12-11T08:30:20.799Z,70.98
2022-12-11T08:32:54.224Z,70.87
2022-12-11T08:35:27.665Z,70.96
2022-12-11T08:38:01.171Z,70.81
2022-12-11T08:40:34.686Z,70.71
2022-12-11T08:43:09.780Z,70.72
2022-12-11T08:45:43.567Z,70.78
2022-12-11T08:48:17.167Z,70.56
2022-12-11T08:50:50.739Z,70.66
2022-12-11T08:53:24.203Z,70.63
2022-12-11T08:56:02.646Z,70.62
2022-12-11T08:58:37.665Z,70.38
2022-12-11T09:01:13.750Z,70.42
2022-12-11T09:03:47.321Z,70.40
2022-12-11T09:06:23.311Z,70.10
2022-12-11T09:08:59.799Z,70.40
2022-12-11T09:11:35.253Z,70.36
2022-12-11T09:14:10.312Z,70.44
2022-12-11T09:16:44.212Z,70.28
2022-12-11T09:19:20.650Z,70.21
2022-12-11T09:21:54.554Z,69.83
2022-12-11T09:24:28.082Z,69.99
2022-12-11T09:27:01.595Z,70.04
2022-12-11T09:29:36.636Z,69.93
2022-12-11T09:32:10.257Z,69.85
2022-12-11T09:34:43.890Z,69.98
2022-12-11T09:37:17.430Z,69.83
2022-12-11T09:39:51.219Z,69.90
2022-12-11T09:42:33.282Z,69.89
2022-12-11T09:45:15.253Z,69.90
2022-12-11T09:47:51.518Z,69.72
2022-12-11T09:50:27.573Z,69.90
2022-12-11T09:53:08.817Z,69.89
2022-12-11T09:55:51.716Z,69.80
2022-12-11T09:58:35.922Z,69.89
2022-12-11T10:01:19.387Z,69.60
2022-12-11T10:04:12.581Z,69.64
2022-12-11T10:06:50.414Z,69.58
2022-12-11T10:09:31.463Z,69.16
2022-12-11T10:12:17.899Z,69.22
2022-12-11T10:15:10.514Z,69.25
2022-12-11T10:17:46.188Z,69.14
2022-12-11T10:20:26.226Z,69.24
2022-12-11T10:23:00.613Z,69.24
2022-12-11T10:25:37.899Z,69.25
2022-12-11T10:28:14.577Z,69.24
2022-12-11T10:31:01.222Z,69.27
2022-12-11T10:33:42.248Z,69.24
2022-12-11T10:36:22.400Z,69.31
2022-12-11T10:38:56.210Z,69.34
2022-12-11T10:41:39.571Z,69.33
2022-12-11T10:44:18.983Z,69.15
2022-12-11T10:47:04.096Z,69.11
2022-12-11T10:49:40.590Z,69.24
2022-12-11T10:52:21.976Z,69.30
2022-12-11T10:55:00.995Z,69.07
2022-12-11T10:57:37.701Z,69.24
2022-12-11T11:00:32.766Z,69.21
2022-12-11T11:03:08.081Z,69.00
2022-12-11T11:05:49.098Z,69.01
2022-12-11T11:08:24.351Z,69.05
2022-12-11T11:10:59.976Z,68.99
2022-12-11T11:13:33.876Z,68.86
2022-12-11T11:16:14.938Z,69.04
2022-12-11T11:18:54.735Z,69.21
2022-12-11T11:21:30.604Z,69.10
2022-12-11T11:24:05.448Z,68.90
2022-12-11T11:27:11.763Z,68.86
2022-12-11T11:29:37.941Z,68.81
2022-12-11T11:32:22.193Z,69.01
2022-12-11T11:35:09.089Z,69.07
2022-12-11T11:37:48.067Z,68.96
2022-12-11T11:40:27.218Z,68.90
2022-12-11T11:43:12.620Z,68.78
2022-12-11T11:45:55.390Z,68.96
2022-12-11T11:48:41.820Z,68.75
2022-12-11T11:51:24.394Z,68.82
2022-12-11T11:54:10.172Z,68.85
2022-12-11T11:56:45.270Z,68.81
2022-12-11T11:59:26.238Z,68.81
2022-12-11T12:02:00.658Z,68.78
2022-12-11T12:04:37.055Z,68.75
2022-12-11T12:07:25.492Z,68.66
2022-12-11T12:10:12.525Z,68.91
2022-12-11T12:12:55.436Z,68.70
2022-12-11T12:15:39.685Z,68.65
2022-12-11T12:18:22.489Z,68.72
2022-12-11T12:21:01.827Z,68.67
2022-12-11T12:23:53.906Z,68.82
2022-12-11T12:26:33.160Z,68.51
2022-12-11T12:29:21.142Z,68.58
2022-12-11T12:32:14.518Z,68.64
2022-12-11T12:35:03.808Z,68.79
2022-12-11T12:37:53.030Z,68.75
2022-12-11T12:40:32.920Z,68.78
2022-12-11T12:43:27.758Z,68.66
2022-12-11T12:46:13.200Z,68.70
2022-12-11T12:48:47.110Z,68.78
2022-12-11T12:51:20.986Z,68.62
2022-12-11T12:53:55.977Z,68.60
2022-12-11T12:56:33.431Z,68.50
2022-12-11T12:59:20.762Z,68.64
2022-12-11T13:01:58.664Z,68.88
2022-12-11T13:04:58.262Z,68.96
2022-12-11T13:07:33.700Z,68.94
2022-12-11T13:10:23.607Z,68.78
2022-12-11T13:12:58.252Z,68.95
2022-12-11T13:15:40.872Z,68.86
2022-12-11T13:18:35.910Z,68.98
2022-12-11T13:21:30.689Z,69.12
2022-12-11T13:24:17.888Z,68.90
2022-12-11T13:26:52.539Z,68.79
2022-12-11T13:29:37.952Z,69.00
2022-12-11T13:32:33.056Z,68.98
2022-12-11T13:35:08.673Z,69.06
2022-12-11T13:37:46.953Z,69.07
2022-12-11T13:40:23.768Z,69.24
2022-12-11T13:43:02.162Z,69.10
2022-12-11T13:45:47.720Z,69.21
2022-12-11T13:48:25.960Z,69.16
2022-12-11T13:51:00.601Z,69.19
2022-12-11T13:53:34.685Z,69.14
2022-12-11T13:56:09.548Z,69.21
2022-12-11T13:58:43.150Z,69.30
2022-12-11T14:01:22.721Z,69.43
2022-12-11T14:03:59.951Z,69.20
2022-12-11T14:06:35.962Z,69.32
2022-12-11T14:09:10.666Z,69.40
2022-12-11T14:11:44.751Z,69.47
2022-12-11T14:14:22.443Z,69.36
2022-12-11T14:16:56.476Z,69.32
2022-12-11T14:19:31.244Z,69.14
2022-12-11T14:22:05.873Z,68.98
2022-12-11T14:24:49.352Z,68.85
2022-12-11T14:27:24.104Z,68.96
2022-12-11T14:29:58.130Z,69.21
2022-12-11T14:32:33.676Z,69.13
2022-12-11T14:35:22.501Z,69.12
2022-12-11T14:38:03.086Z,69.26
2022-12-11T14:40:41.722Z,69.38
2022-12-11T14:43:22.553Z,69.50
2022-12-11T14:46:00.466Z,69.41
2022-12-11T14:48:39.060Z,69.53
2022-12-11T14:51:19.052Z,69.43
2022-12-11T14:53:55.097Z,69.47
2022-12-11T14:56:31.414Z,69.75
2022-12-11T14:59:09.436Z,69.81
2022-12-11T15:01:43.032Z,69.62
2022-12-11T15:04:25.096Z,69.66
2022-12-11T15:07:00.607Z,69.75
2022-12-11T15:09:40.825Z,69.60
2022-12-11T15:12:19.755Z,69.92
2022-12-11T15:14:56.420Z,69.89
2022-12-11T15:17:31.564Z,69.87
2022-12-11T15:20:08.930Z,69.89
2022-12-11T15:22:45.811Z,69.70
2022-12-11T15:25:23.186Z,69.79
2022-12-11T15:27:58.237Z,69.78
2022-12-11T15:30:36.894Z,69.73
2022-12-11T15:33:34.249Z,69.88
2022-12-11T15:36:23.040Z,69.70
2022-12-11T15:38:58.669Z,69.87
2022-12-11T15:41:34.820Z,69.71
2022-12-11T15:44:10.773Z,69.72
2022-12-11T15:46:46.998Z,69.98
2022-12-11T15:49:24.226Z,69.85
2022-12-11T15:51:58.887Z,70.13
2022-12-11T15:54:35.804Z,69.98
2022-12-11T15:57:16.863Z,70.12
2022-12-11T15:59:52.659Z,70.01
2022-12-11T16:02:27.085Z,70.01
2022-12-11T16:05:14.153Z,70.16
2022-12-11T16:07:52.369Z,69.88
2022-12-11T16:10:28.578Z,70.18
2022-12-11T16:13:02.943Z,70.17
2022-12-11T16:15:38.246Z,70.21
2022-12-11T16:18:16.913Z,70.25
2022-12-11T16:20:51.738Z,70.21
2022-12-11T16:23:25.367Z,70.04
2022-12-11T16:26:00.686Z,70.19
2022-12-11T16:28:37.043Z,70.18
2022-12-11T16:31:14.707Z,70.24
2022-12-11T16:33:56.172Z,70.22
2022-12-11T16:36:29.771Z,70.13
2022-12-11T16:39:03.651Z,70.12
2022-12-11T16:41:41.810Z,70.28
2022-12-11T16:44:15.604Z,70.11
2022-12-11T16:46:49.618Z,70.14
2022-12-11T16:49:26.491Z,70.09
2022-12-11T16:52:03.147Z,69.95
2022-12-11T16:54:36.917Z,70.14
2022-12-11T16:57:13.123Z,70.16
2022-12-11T16:59:54.495Z,70.06
2022-12-11T17:02:28.305Z,70.10
2022-12-11T17:05:02.003Z,69.96
2022-12-11T17:07:39.107Z,70.12
2022-12-11T17:10:15.859Z,70.09
2022-12-11T17:12:50.947Z,70.17
2022-12-11T17:15:24.686Z,70.26
2022-12-11T17:17:58.265Z,70.39
2022-12-11T17:20:35.336Z,70.21
2022-12-11T17:23:10.159Z,70.13
2022-12-11T17:25:46.775Z,70.34
2022-12-11T17:28:22.963Z,70.21
2022-12-11T17:30:56.690Z,70.19
2022-12-11T17:33:30.369Z,70.15
2022-12-11T17:36:07.939Z,70.01
2022-12-11T17:38:41.789Z,70.24
2022-12-11T17:41:41.478Z,70.13
2022-12-11T17:44:30.967Z,70.13
2022-12-11T17:47:11.221Z,70.17
2022-12-11T17:49:45.131Z,70.17
2022-12-11T17:52:18.714Z,69.87
2022-12-11T17:54:55.592Z,70.17
2022-12-11T17:57:29.158Z,70.20
2022-12-11T18:00:04.554Z,70.10
2022-12-11T18:02:48.916Z,70.20
2022-12-11T18:05:23.426Z,70.18
2022-12-11T18:07:58.027Z,70.08
2022-12-11T18:10:32.006Z,70.17
2022-12-11T18:13:05.543Z,70.12
2022-12-11T18:15:43.143Z,70.31
2022-12-11T18:18:16.773Z,70.30
2022-12-11T18:20:50.840Z,70.26
2022-12-11T18:23:26.579Z,70.03
2022-12-11T18:26:00.679Z,70.06
2022-12-11T18:28:34.215Z,69.84
2022-12-11T18:31:13.706Z,69.84
2022-12-11T18:33:53.326Z,69.96
2022-12-11T18:36:29.820Z,70.09
2022-12-11T18:39:03.833Z,70.24
2022-12-11T18:41:43.264Z,70.19
2022-12-11T18:44:22.672Z,70.24
2022-12-11T18:47:02.854Z,70.31
2022-12-11T18:49:39.959Z,70.35
2022-12-11T18:52:18.337Z,70.24
2022-12-11T18:54:52.507Z,70.44
2022-12-11T18:57:31.891Z,70.31
2022-12-11T19:00:07.642Z,70.47
2022-12-11T19:02:42.671Z,70.26
2022-12-11T19:05:16.220Z,70.37
2022-12-11T19:07:49.910Z,70.50
2022-12-11T19:10:23.714Z,70.23
2022-12-11T19:12:57.512Z,70.31
2022-12-11T19:15:31.207Z,70.47
2022-12-11T19:18:06.313Z,70.43
2022-12-11T19:20:53.619Z,70.50
2022-12-11T19:23:33.037Z,70.35
2022-12-11T19:26:10.776Z,70.41
2022-12-11T19:28:44.642Z,70.32
2022-12-11T19:31:20.614Z,70.57
2022-12-11T19:33:56.212Z,70.47
2022-12-11T19:36:31.779Z,70.47
2022-12-11T19:39:11.316Z,70.42
2022-12-11T19:41:50.558Z,70.23
2022-12-11T19:44:25.035Z,69.97
2022-12-11T19:46:58.710Z,70.23
2022-12-11T19:49:33.971Z,70.32
2022-12-11T19:52:07.643Z,70.38
2022-12-11T19:54:41.352Z,70.42
2022-12-11T19:57:15.120Z,70.22
2022-12-11T19:59:53.887Z,70.39
2022-12-11T20:02:30.634Z,70.43
2022-12-11T20:05:06.215Z,70.26
2022-12-11T20:07:40.314Z,70.31
2022-12-11T20:10:13.583Z,70.29
2022-12-11T20:12:47.323Z,70.35
2022-12-11T20:15:20.826Z,70.18
2022-12-11T20:17:54.947Z,70.29
2022-12-11T20:20:31.812Z,70.40
2022-12-11T20:23:05.698Z,70.39
2022-12-11T20:25:40.811Z,70.19
2022-12-11T20:28:14.313Z,70.41
2022-12-11T20:30:50.111Z,70.41
2022-12-11T20:33:23.659Z,70.40
2022-12-11T20:35:58.612Z,70.58
2022-12-11T20:38:34.638Z,70.47
2022-12-11T20:41:12.156Z,70.52
2022-12-11T20:43:45.965Z,70.61
2022-12-11T20:46:20.505Z,70.66
2022-12-11T20:48:54.594Z,70.62
2022-12-11T20:51:30.577Z,70.72
2022-12-11T20:54:04.122Z,70.53
2022-12-11T20:56:37.811Z,70.66
2022-12-11T20:59:15.800Z,70.68
2022-12-11T21:01:51.621Z,70.41
2022-12-11T21:04:25.556Z,70.79
2022-12-11T21:07:01.056Z,70.69
2022-12-11T21:09:34.625Z,70.61
2022-12-11T21:12:08.762Z,70.54
2022-12-11T21:14:42.851Z,70.78
2022-12-11T21:17:16.002Z,70.43
2022-12-11T21:19:59.424Z,70.31
2022-12-11T21:22:34.489Z,70.59
2022-12-11T21:25:11.515Z,70.67
2022-12-11T21:27:48.520Z,70.61
2022-12-11T21:30:27.772Z,70.72
2022-12-11T21:33:04.173Z,70.65
2022-12-11T21:35:38.033Z,70.73
2022-12-11T21:38:12.842Z,70.41
2022-12-11T21:40:46.073Z,70.13
2022-12-11T21:43:22.474Z,70.14
2022-12-11T21:46:03.494Z,70.32
2022-12-11T21:48:37.461Z,70.44
2022-12-11T21:51:15.528Z,70.36
2022-12-11T21:53:50.615Z,70.32
2022-12-11T21:56:28.633Z,70.53
2022-12-11T21:59:02.657Z,70.54
2022-12-11T22:01:38.438Z,70.37
2022-12-11T22:04:15.186Z,70.24
2022-12-11T22:06:48.784Z,70.42
2022-12-11T22:09:23.762Z,70.44
2022-12-11T22:11:58.799Z,70.68
2022-12-11T22:14:32.573Z,70.71
2022-12-11T22:17:06.095Z,70.60
2022-12-11T22:19:39.654Z,70.36
2022-12-11T22:22:13.782Z,70.40
2022-12-11T22:24:48.729Z,70.39
2022-12-11T22:27:24.021Z,70.61
2022-12-11T22:29:57.763Z,70.62
2022-12-11T22:32:31.388Z,70.56
2022-12-11T22:35:05.007Z,70.63
2022-12-11T22:37:38.561Z,70.65
2022-12-11T22:40:13.749Z,70.78
2022-12-11T22:42:47.292Z,70.75
2022-12-11T22:45:21.147Z,70.67
2022-12-11T22:47:54.630Z,70.73
2022-12-11T22:50:36.726Z,70.85
2022-12-11T22:53:10.367Z,70.85
2022-12-11T22:55:47.817Z,70.89
2022-12-11T22:58:22.036Z,70.88
2022-12-11T23:00:55.650Z,71.07
2022-12-11T23:03:29.559Z,70.98
2022-12-11T23:06:05.690Z,70.79
2022-12-11T23:08:40.222Z,71.03
2022-12-11T23:11:17.595Z,70.89
2022-12-11T23:13:51.853Z,71.20
2022-12-11T23:16:25.939Z,71.06
2022-12-11T23:19:00.594Z,70.98
2022-12-11T23:21:34.587Z,71.23
2022-12-11T23:24:08.500Z,71.08
2022-12-11T23:26:44.253Z,71.08
2022-12-11T23:29:23.473Z,71.05
2022-12-11T23:31:57.340Z,71.39
2022-12-11T23:34:30.940Z,71.27
2022-12-11T23:37:04.942Z,71.30
2022-12-11T23:39:38.174Z,70.93
2022-12-11T23:42:13.273Z,71.05
2022-12-11T23:44:46.945Z,71.17
2022-12-11T23:47:20.517Z,71.17
2022-12-11T23:49:54.207Z,71.45
2022-12-11T23:52:27.834Z,71.28
2022-12-11T23:55:01.397Z,71.61
2022-12-11T23:57:39.917Z,71.68
